Weather at San Antonio De Falcon Airport

Public forecast

Using degrees Celsius for public forecast. Weather courtesy of forecast.io.

Closest aviation weather report (METAR) to San Antonio De Falcon Airport

Report is more than 6 hours old.

Closest report is General Bartolome Salom International Airport, 38.8 nm (71.9 km) SSE. Retrieved 2019/12/24 13:00 UTC (2 years ago):

SVPC 241300Z 00000KT 9999 SCT020 XX/XX Q1011

Closest aviation forecast (TAF) to San Antonio De Falcon Airport

Closest forecast is Arturo Michelena International Airport, 60.4 nm (111.9 km) SSE. Retrieved 2021/09/19 18:00 UTC (45 minutes ago):

TAF SVVA 191800Z 1918/2018 29005KT 9999 SCT016 BKN080 TX33/1919 TN23/2009 BECMG 1919/1922 18005KT 9000 VCDZ BKN020 FM 192230 10005KT 9999 BKN020